Weather at Brisbane International Airport

Public forecast

Using degrees Celsius for public forecast. Weather courtesy of forecast.io.

Current aviation weather report (METAR) for Brisbane International Airport

Retrieved 2020/09/26 17:30 UTC (0 seconds ago):

YBBN 261730Z 22007KT CAVOK 10/M03 Q1018 NOSIG

Aviation forecast (TAF) for Brisbane International Airport

Retrieved 2020/09/26 12:00 UTC (5 hours ago):

TAF YBBN 261101Z 2612/2718 24006KT CAVOK FM270000 04012KT CAVOK FM270800 10010KT CAVOK FM271200 20006KT 9999 FEW040